White Mountain Summit Weather observations

Data are for 10 minute period ending at time listed.
 Day   Time   Solar   Ave.   Ave.  Ave.  Vector    Max.    Baro.  
  of    of     Rad.   Air    Rel.  Wind   Wind     Wind   Press.  
Year   Day            Temp.  Hum.  Speed  Dir.     Gust           
2014   (PST)   W/m2    F      %     mph   deg.      mph     mb.   
-------------------------------------------------------------------
 112    0:00    0.0    22   35.8    82    270.6   103.5   999.0 
 112    0:10    0.0    22   38.4    79    269.5    98.8   999.0 
 112    0:20    0.0    22   38.9    79    271.0    98.8   999.0 
 112    0:30    0.0    22   40.6    77    270.0    89.4   999.0 
 112    0:40    0.0    22   37.4    76    269.1    87.1   999.0 
 112    0:50    0.0    22   34.2    76    269.0    87.1   999.0 
 112    1:00    0.0    21   34.0    74    268.4    87.1   999.0 
 112    1:10    0.0    21   33.3    73    271.3    89.4   999.0 
 112    1:20    0.0    20   34.4    75    267.9    91.8   999.0 
 112    1:30    0.0    20   35.5    70    268.2    84.7   999.0 
 112    1:40    0.0    20   35.6    72    268.5    84.7   999.0 
 112    1:50    0.0    20   35.6    78    267.1    96.5   999.0 
 112    2:00    0.0    19   37.8    82    268.9    98.8   999.0 
 112    2:10    0.0    19   39.9    76    267.8    89.4   999.0 
 112    2:20    0.0    18   40.6    73    265.4    84.7   999.0 
 112    2:30    0.0    18   40.1    72    267.7    87.1   999.0 
 112    2:40    0.0    18   40.9    76    270.1    96.5   999.0 
 112    2:50    0.0    18   40.4    76    269.8    89.4   999.0 
 112    3:00    0.0    18   41.2    76    268.2    91.8   999.0 
 112    3:10    0.0    18   44.7    77    268.3    94.1   999.0 
 112    3:20    0.0    18   46.2    83    270.1    98.8   999.0 
 112    3:30    0.0    18   51.2    80    266.8    91.8   999.0 
 112    3:40    0.0    17   54.2    78    266.2    94.1   999.0 
 112    3:50    0.0    17   56.4    78    266.9    98.8   999.0 
 112    4:00    0.0    17   60.2    77    271.3    94.1   999.0 
 112    4:10    0.0    17   60.8    79    268.7    98.8   999.0 
 112    4:20    0.0    17   65.8    76    267.8   101.2   999.0 
 112    4:30    0.0    17   65.8    81    271.1    96.5   999.0 
 112    4:40    0.0    17   66.0    89    268.2   110.6   999.0 
 112    4:50    0.0    17   68.2    88    269.3   101.2   999.0 
 112    5:00    0.0    16   68.3    85    268.2   105.9   999.0 
 112    5:10    0.0    16   69.1    86    268.6   105.9   999.0 
 112    5:20    0.0    16   73.0    89    267.4   105.9   999.0 
 112    5:30    0.0    15   73.9    92    267.7   117.7   999.0 
 112    5:40    0.0    16   75.3    96    270.5   120.0   999.0 
 112    5:50    0.0    16   76.1   103    268.9   129.4   999.0 
 112    6:00    0.0    16   76.3   105    268.5   122.4   999.0 
 112    6:10    0.0    16   77.8    96    268.8   124.7   999.0 
 112    6:20    0.0    16   78.0    94    270.2   110.6   999.0 
 112    6:30    0.0    15   79.5    87    269.5   103.5   999.0 
 112    6:40    0.0    15   83.1    94    267.3   110.6   999.0 
 112    6:50    0.0    14   85.5    86    270.4   110.6   999.0 
 112    7:00    0.0    14   87.3    88    267.8   105.9   999.0 
 112    7:10    0.0    14   87.3    83    266.6    98.8   999.0 
 112    7:20    0.0    14   87.0    71    268.0    87.1   999.0 
 112    7:30    0.0    13   87.0    72    265.6    82.4   999.0 
 112    7:40    0.0    13   86.9    71    267.7    82.4   999.0 
 112    7:50    0.0    14   87.0    70    267.8    84.7   999.0 
 112    8:00    0.0    13   86.8    64    265.9    75.3   999.0 
 112    8:10    0.0    12   86.7    62    265.9    75.3   999.0 
 112    8:20    0.0    12   86.5    63    265.7    75.3   999.0 
 112    8:30    0.0    12   86.4    60    265.8    72.9   999.0 
 112    8:40    0.0    12   86.6    58    265.0    68.2   999.0 
 112    8:50    0.0    12   86.4    67    265.2    80.0   999.0 
 112    9:00    0.0    12   86.4    67    265.2    80.0   999.0 
 112    9:10    0.0    12   86.5    64    266.4    72.9   999.0 
 112    9:20    0.0    11   86.3    65    264.8    84.7   999.0 
 112    9:30    0.0    11   86.2    72    263.0    87.1   999.0 
 112    9:40    0.0    10   85.6    71    264.2    87.1   999.0 
 112    9:50    0.0     8   84.9    81    261.2    94.1   999.0 
 112   10:00    0.0     8   83.9    98    263.7   127.1   999.0 
 112   10:10    0.0     9   75.4   104    265.3   127.1   999.0 
 112   10:20    0.0    10   65.8   100    266.0   127.1   999.0 
 112   10:30    0.0    10   63.4   100    265.8   136.5   999.0 
 112   10:40    0.0    11   62.8    80    265.9   105.9   999.0 
 112   10:50    0.0    10   63.4    75    264.5   110.6   999.0 
 112   11:00    0.0    11   60.4    66    264.2    94.1   999.0 
 112   11:10    0.0    11   66.5    76    263.9    94.1   999.0 
 112   11:20    0.0    11   71.2    85    263.8   101.2   999.0 
 112   11:30    0.0    11   69.0   100    265.3   127.1   999.0 
 112   11:40    0.0    11   55.4   109    264.8   129.4   999.0 
 112   11:50    0.0    11   52.3   101    264.0   115.3   999.0 
 112   12:00    0.0    11   58.6   103    266.6   115.3   999.0 
 112   12:10    0.0    11   58.5   103    265.4   117.7   999.0 
 112   12:20    0.0    12   58.4   101    266.3   115.3   999.0 
 112   12:30    0.0    12   59.3    94    266.5   117.7   999.0 
 112   12:40    0.0    12   59.9    81    267.4    98.8   999.0 
 112   12:50    0.0    12   56.8    74    266.8    94.1   999.0 
 112   13:00    0.0    13   55.1    71    268.2    89.4   999.0 
 112   13:10    0.0    13   54.1    62    266.7    72.9   999.0 
 112   13:20    0.0    13   51.5    79    263.5    91.8   999.0 
 112   13:30    0.0    13   51.5    87    265.1    98.8   999.0 
 112   13:40    0.0    13   50.4    75    265.2    94.1   999.0 
 112   13:50    0.0    13   50.3    75    267.2    94.1   999.0 
 112   14:00    0.0    13   51.8    86    265.0   113.0   999.0 
 112   14:10    0.0    13   52.0    99    265.4   122.4   999.0 
 112   14:20    0.0    12   51.8   110    264.1   127.1   999.0 
 112   14:30    0.0    12   50.3   114    264.9   134.1   999.0 
 112   14:40    0.0    12   52.0   114    264.7   129.4   999.0 
 112   14:50    0.0    12   51.9   119    264.0   131.8   999.0 
 112   15:00    0.0    11   54.5   119    264.2   134.1   999.0 
 112   15:10    0.0    12   53.9   114    264.9   129.4   999.0 
 112   15:20    0.0    12   54.8   112    265.4   122.4   999.0 
 112   15:30    0.0    11   59.8   107    265.0   120.0   999.0 
 112   15:40    0.0    11   60.0   107    267.0   117.7   999.0 
 112   15:50    0.0    11   59.4   106    265.6   117.7   999.0 
 112   16:00    0.0    11   59.2   102    265.7   120.0   999.0 
 112   16:10    0.0    11   62.0    94    266.8   108.3   999.0 
 112   16:20    0.0    11   66.8    90    265.8   105.9   999.0 
 112   16:30    0.0    11   68.1    92    266.3   101.2   999.0 
 112   16:40    0.0    11   69.5    89    264.6   101.2   999.0 
 112   16:50    0.0    10   72.9    91    266.6   101.2   999.0 
 112   17:00    0.0    10   72.5    85    265.6    96.5   999.0 
 112   17:10    0.0    10   73.2    78    265.4    87.1   999.0 
 112   17:20    0.0    10   73.0    77    265.8    87.1   999.0 
 112   17:30    0.0    10   75.6    72    264.1    82.4   999.0 
 112   17:40    0.0    10   76.1    70    265.7    77.7   999.0 
 112   17:50    0.0     9   77.6    70    264.9    77.7   999.0 
 112   18:00    0.0     9   79.3    66    265.2    75.3   999.0 
 112   18:10    0.0     9   80.1    60    264.8    68.2   999.0 
 112   18:20    0.0     8   81.8    55    264.2    65.9   999.0 
 112   18:30    0.0     8   83.0    55    263.3    63.5   999.0 
 112   18:40    0.0     7   85.0    59    262.2    65.9   999.0 
 112   18:50    0.0     7   85.9    60    261.2    65.9   999.0 
 112   19:00    0.0     6   86.7    56    261.0    61.2   999.0 
 112   19:10    0.0     6   86.0    50    260.7    58.8   999.0 
 112   19:20    0.0     6   83.2    53    261.8    61.2   999.0 
 112   19:30    0.0     6   74.0    56    262.3    63.5   999.0 
 112   19:40    0.0     7   60.3    49    269.6    61.2   999.0 
 112   19:50    0.0     8   47.2    43    273.0    54.1   999.0 
 112   20:00    0.0     8   45.4    30    274.6    51.8   999.0 
 112   20:10    0.0     7   45.8    32    272.3    44.7   999.0 
 112   20:20    0.0     7   46.8    42    270.0    56.5   999.0 
 112   20:30    0.0     7   45.3    50    266.3    58.8   999.0 
 112   20:40    0.0     7   46.0    46    269.3    51.8   999.0 
 112   20:50    0.0     7   45.8    48    266.8    54.1   999.0 
 112   21:00    0.0     7   45.6    52    266.0    58.8   999.0 
 112   21:10    0.0     7   43.4    51    264.5    58.8   999.0 
 112   21:20    0.0     7   42.8    48    263.6    51.8   999.0 
 112   21:30    0.0     7   43.3    51    264.2    56.5   999.0 
 112   21:40    0.0     7   41.5    50    264.8    61.2   999.0 
 112   21:50    0.0     8   38.2    56    263.7    61.2   999.0 
 112   22:00    0.0     8   38.5    54    263.7    58.8   999.0 
 112   22:10    0.0     8   37.6    56    265.0    61.2   999.0 
 112   22:20    0.0     8   38.0    56    264.7    63.5   999.0 
 112   22:30    0.0     8   37.0    55    266.5    63.5   999.0 
 112   22:40    0.0     8   36.7    57    265.7    63.5   999.0 
 112   22:50    0.0     7   38.0    61    266.1    68.2   999.0 
 112   23:00    0.0     8   37.3    65    266.9    70.6   999.0 
 112   23:10    0.0     7   35.9    62    265.7    68.2   999.0 
 112   23:20    0.0     7   37.3    60    266.7    65.9   999.0 

Return to White Mountain graphs page.


Western Regional Climate Center,wrcc@dri.edu